Time;durP1;ratioP1;P1;durP2;ratioP2;P2;SDS_P1;SDS_P2;PMS_P1;PMS_P2;Temp;Humidity;BMP_temperature;BMP_pressure;BME280_temperature;BME280_humidity;BME280_pressure;Samples;Min_cycle;Max_cycle;Signal;HPM_P1;HPM_P2
2022/03/05 00:01:21;;;;;;;89.88;69.90;;;25.70;99.30;;;;;;4158847;28;20064;-68
2022/03/05 00:03:28;;;;;;;87.82;70.22;;;25.80;99.40;;;;;;4161244;28;20555;-68
2022/03/05 00:05:33;;;;;;;88.15;69.28;;;25.80;99.50;;;;;;4161664;28;20456;-69
2022/03/05 00:07:37;;;;;;;93.30;73.22;;;25.80;99.70;;;;;;4157734;28;20673;-68
2022/03/05 00:09:46;;;;;;;94.88;77.15;;;25.80;99.70;;;;;;4159261;28;20065;-67
2022/03/05 00:11:49;;;;;;;92.07;77.57;;;25.80;99.70;;;;;;4159518;28;20045;-67
2022/03/05 00:13:54;;;;;;;99.88;83.10;;;25.80;99.80;;;;;;4158444;28;21419;-68
2022/03/05 00:16:04;;;;;;;105.00;81.28;;;25.90;99.90;;;;;;4161648;28;20037;-67
2022/03/05 00:18:09;;;;;;;100.40;82.63;;;25.90;99.90;;;;;;4156646;28;20038;-68
2022/03/05 00:20:13;;;;;;;102.90;81.97;;;26.00;99.90;;;;;;4160331;28;20033;-68
2022/03/05 00:22:21;;;;;;;99.13;81.65;;;26.00;99.90;;;;;;4161044;28;20041;-67
2022/03/05 00:24:26;;;;;;;95.57;79.40;;;26.00;99.90;;;;;;4159380;28;20099;-68
2022/03/05 00:26:30;;;;;;;100.43;79.63;;;26.00;99.90;;;;;;4161971;28;20041;-68
2022/03/05 00:28:44;;;;;;;93.68;78.07;;;26.00;99.90;;;;;;4160211;28;20095;-68
2022/03/05 00:30:48;;;;;;;92.47;75.38;;;26.00;99.90;;;;;;4157231;28;20057;-68
2022/03/05 00:32:53;;;;;;;93.88;73.97;;;25.90;99.90;;;;;;4159043;28;20503;-68
2022/03/05 00:34:59;;;;;;;96.95;77.05;;;26.00;99.90;;;;;;4161012;28;20377;-68
2022/03/05 00:37:05;;;;;;;94.35;76.63;;;26.00;99.90;;;;;;4152723;28;20156;-68
2022/03/05 00:39:10;;;;;;;93.43;76.68;;;26.10;99.90;;;;;;4157150;28;20072;-68
2022/03/05 00:41:17;;;;;;;91.78;75.50;;;26.20;99.90;;;;;;4157641;28;20049;-69
2022/03/05 00:43:28;;;;;;;95.97;74.97;;;26.20;99.90;;;;;;4159004;28;20756;-77
2022/03/05 00:45:32;;;;;;;83.32;71.03;;;26.20;99.90;;;;;;4161676;28;20029;-76
2022/03/05 00:47:39;;;;;;;87.78;72.43;;;26.30;99.90;;;;;;4166445;28;20053;-77
2022/03/05 00:49:49;;;;;;;83.03;69.38;;;26.20;99.90;;;;;;4147144;28;20475;-76
2022/03/05 00:51:53;;;;;;;86.22;70.93;;;26.40;99.90;;;;;;4163056;28;20053;-76
2022/03/05 00:54:00;;;;;;;84.35;68.35;;;26.40;99.90;;;;;;4159754;28;20132;-76
2022/03/05 00:56:04;;;;;;;86.43;70.30;;;26.50;99.90;;;;;;4163446;28;20385;-76
2022/03/05 00:58:09;;;;;;;84.28;68.47;;;26.60;99.90;;;;;;4163202;28;20045;-73
2022/03/05 01:00:15;;;;;;;81.82;67.90;;;26.60;99.80;;;;;;4160698;28;20049;-74
2022/03/05 01:02:20;;;;;;;78.43;67.70;;;26.70;99.90;;;;;;4161176;28;20111;-76
2022/03/05 01:04:24;;;;;;;79.10;66.18;;;26.70;99.70;;;;;;4162160;28;20680;-75
2022/03/05 01:06:33;;;;;;;77.70;66.03;;;26.80;99.70;;;;;;4164594;28;20057;-75
2022/03/05 01:08:38;;;;;;;75.90;64.97;;;26.90;99.80;;;;;;4152380;28;20084;-75
2022/03/05 01:10:43;;;;;;;81.07;65.65;;;26.90;99.90;;;;;;4157438;28;20508;-75
2022/03/05 01:12:49;;;;;;;75.72;64.03;;;26.90;99.90;;;;;;4160368;28;20037;-74
2022/03/05 01:14:53;;;;;;;71.55;63.13;;;26.90;99.80;;;;;;4161581;28;20049;-76
2022/03/05 01:16:58;;;;;;;78.05;65.70;;;27.00;99.60;;;;;;4164111;28;20045;-76
2022/03/05 01:19:20;;;;;;;80.07;65.45;;;27.00;99.60;;;;;;4162732;28;20045;-76
2022/03/05 01:21:25;;;;;;;86.10;69.15;;;27.00;99.70;;;;;;4159629;28;20076;-75
2022/03/05 01:23:30;;;;;;;83.38;68.43;;;27.00;99.40;;;;;;4164023;28;20199;-75
2022/03/05 01:25:38;;;;;;;73.93;62.28;;;27.10;99.30;;;;;;4166170;28;20141;-76
2022/03/05 01:27:45;;;;;;;81.80;64.57;;;27.10;99.10;;;;;;4164185;28;20049;-76
2022/03/05 01:30:02;;;;;;;83.03;64.47;;;27.20;99.00;;;;;;4161775;28;20073;-75
2022/03/05 01:32:12;;;;;;;71.35;59.67;;;27.30;98.90;;;;;;4168903;28;20045;-75
2022/03/05 01:34:27;;;;;;;71.63;60.45;;;27.30;98.80;;;;;;4167509;28;20042;-75
2022/03/05 01:36:32;;;;;;;75.40;61.17;;;27.40;98.70;;;;;;4159798;28;20049;-75
2022/03/05 01:38:41;;;;;;;70.75;61.05;;;27.40;98.60;;;;;;4160956;28;20128;-75
2022/03/05 01:40:46;;;;;;;79.70;59.80;;;27.50;98.60;;;;;;4165031;28;20060;-76
2022/03/05 01:42:54;;;;;;;69.00;59.20;;;27.60;98.80;;;;;;4159406;28;20048;-75
2022/03/05 01:45:04;;;;;;;69.78;59.30;;;27.60;98.60;;;;;;4157316;28;20504;-76
2022/03/05 01:47:08;;;;;;;75.75;61.38;;;27.70;98.90;;;;;;4162048;28;20061;-76
2022/03/05 01:49:13;;;;;;;74.72;62.58;;;27.70;98.50;;;;;;4162524;28;20046;-75
2022/03/05 01:51:18;;;;;;;73.45;59.25;;;27.70;98.20;;;;;;4165316;28;20058;-71
2022/03/05 01:53:22;;;;;;;72.88;58.75;;;27.80;98.10;;;;;;4162037;28;20049;-75
2022/03/05 01:55:28;;;;;;;74.25;58.15;;;27.80;98.00;;;;;;4163678;28;20037;-75
2022/03/05 01:57:33;;;;;;;69.93;55.75;;;27.80;97.90;;;;;;4163153;28;20048;-75
2022/03/05 01:59:37;;;;;;;67.43;56.63;;;27.90;98.00;;;;;;4173205;28;20041;-76
2022/03/05 02:01:42;;;;;;;71.85;57.25;;;28.00;98.10;;;;;;4164714;28;20056;-76
2022/03/05 02:03:49;;;;;;;77.03;58.35;;;28.00;98.10;;;;;;4152919;28;20237;-76
2022/03/05 02:05:54;;;;;;;70.45;58.70;;;28.10;98.20;;;;;;4162522;28;20045;-76
2022/03/05 02:07:58;;;;;;;74.55;62.13;;;28.10;98.20;;;;;;4162704;28;20037;-76
2022/03/05 02:10:08;;;;;;;80.25;65.22;;;28.10;98.00;;;;;;4157292;28;20053;-75
2022/03/05 02:12:13;;;;;;;82.40;66.15;;;28.20;98.00;;;;;;4160638;28;20057;-76
2022/03/05 02:14:18;;;;;;;83.53;66.75;;;28.20;98.00;;;;;;4165287;28;20540;-76
2022/03/05 02:16:23;;;;;;;77.38;64.75;;;28.30;97.90;;;;;;4171053;28;20046;-76
2022/03/05 02:18:28;;;;;;;77.72;64.35;;;28.30;97.90;;;;;;4160555;28;20049;-76
2022/03/05 02:20:32;;;;;;;79.03;65.32;;;28.30;98.30;;;;;;4170235;28;20132;-76
2022/03/05 02:22:40;;;;;;;76.57;64.63;;;28.30;98.10;;;;;;4172289;28;20053;-77
2022/03/05 02:24:44;;;;;;;75.15;63.20;;;28.30;98.10;;;;;;4167978;28;20054;-75
2022/03/05 02:26:48;;;;;;;68.05;60.13;;;28.40;98.00;;;;;;4164623;28;20095;-75
2022/03/05 02:28:57;;;;;;;67.50;60.13;;;28.50;97.70;;;;;;4163120;28;20572;-75
2022/03/05 02:31:01;;;;;;;66.15;58.05;;;28.50;97.50;;;;;;4163726;28;20068;-75
2022/03/05 02:33:06;;;;;;;68.30;57.45;;;28.50;97.30;;;;;;4162274;28;20057;-75
2022/03/05 02:35:12;;;;;;;69.07;57.95;;;28.50;97.20;;;;;;4164851;28;20137;-75
2022/03/05 02:37:17;;;;;;;66.75;59.28;;;28.60;97.00;;;;;;4168065;28;20802;-74
2022/03/05 02:39:26;;;;;;;75.80;61.00;;;28.60;97.10;;;;;;4162894;28;20116;-75
2022/03/05 02:41:32;;;;;;;76.95;60.92;;;28.70;97.40;;;;;;4158746;28;20049;-73
2022/03/05 02:43:38;;;;;;;71.20;61.30;;;28.70;97.60;;;;;;4162338;28;20045;-75
2022/03/05 02:45:43;;;;;;;64.60;57.53;;;28.70;97.70;;;;;;4162211;28;20156;-74
2022/03/05 02:47:51;;;;;;;97.35;58.47;;;28.80;97.50;;;;;;4159202;28;20111;-76
2022/03/05 02:49:55;;;;;;;77.35;56.75;;;28.80;97.30;;;;;;4163612;28;20979;-75
2022/03/05 02:52:00;;;;;;;71.15;57.83;;;28.90;97.40;;;;;;4155484;28;20062;-74
2022/03/05 02:54:08;;;;;;;66.88;55.63;;;28.90;97.40;;;;;;4156861;28;20049;-75
2022/03/05 02:56:12;;;;;;;69.95;57.08;;;29.00;97.60;;;;;;4169266;28;20060;-75
2022/03/05 02:58:17;;;;;;;60.70;53.28;;;29.00;97.40;;;;;;4162699;28;20091;-75
2022/03/05 03:00:24;;;;;;;57.40;50.30;;;29.10;97.00;;;;;;4160377;28;20103;-76
2022/03/05 03:02:29;;;;;;;62.97;52.30;;;29.10;96.60;;;;;;4161694;28;20059;-75
2022/03/05 03:04:34;;;;;;;71.10;53.22;;;29.10;96.20;;;;;;4154072;28;20064;-75
2022/03/05 03:06:41;;;;;;;58.45;51.38;;;29.20;96.00;;;;;;4164958;28;20080;-75
2022/03/05 03:08:45;;;;;;;56.95;48.05;;;29.20;95.70;;;;;;4166720;28;20049;-75
2022/03/05 03:10:49;;;;;;;51.65;44.92;;;29.20;95.70;;;;;;4163771;28;20048;-75
2022/03/05 03:12:58;;;;;;;57.15;46.72;;;29.30;95.80;;;;;;4168496;28;20045;-75
2022/03/05 03:15:03;;;;;;;52.08;44.35;;;29.40;95.30;;;;;;4162321;28;20056;-75
2022/03/05 03:17:08;;;;;;;49.28;42.90;;;29.40;95.30;;;;;;4159360;28;20128;-75
2022/03/05 03:19:17;;;;;;;47.20;41.20;;;29.50;94.90;;;;;;4161751;28;20052;-76
2022/03/05 03:21:22;;;;;;;45.60;40.13;;;29.60;94.40;;;;;;4161669;28;20049;-75
2022/03/05 03:23:26;;;;;;;41.25;36.17;;;29.60;93.30;;;;;;4156903;28;20072;-76
2022/03/05 03:25:35;;;;;;;44.28;36.72;;;29.70;92.70;;;;;;4161875;28;20045;-75
2022/03/05 03:27:39;;;;;;;44.38;37.17;;;29.60;92.70;;;;;;4163160;28;20135;-75
2022/03/05 03:29:44;;;;;;;40.65;35.95;;;29.70;92.60;;;;;;4166209;28;20529;-75
2022/03/05 03:31:52;;;;;;;40.97;34.38;;;29.70;92.40;;;;;;4169810;28;20049;-76
2022/03/05 03:33:56;;;;;;;35.55;31.65;;;29.80;92.10;;;;;;4160102;28;20048;-75
2022/03/05 03:36:01;;;;;;;35.90;32.05;;;29.80;91.90;;;;;;4162458;28;20495;-76
2022/03/05 03:38:07;;;;;;;36.85;30.52;;;29.90;91.60;;;;;;4159365;28;20045;-76
2022/03/05 03:40:14;;;;;;;34.30;28.70;;;29.90;91.10;;;;;;4161554;28;20064;-76
2022/03/05 03:42:18;;;;;;;37.42;30.42;;;29.90;91.10;;;;;;4160777;28;20052;-75
2022/03/05 03:44:24;;;;;;;34.80;30.83;;;30.00;91.20;;;;;;4162365;28;20042;-75
2022/03/05 03:46:28;;;;;;;35.78;29.98;;;30.10;90.30;;;;;;4162194;28;20060;-76
2022/03/05 03:48:33;;;;;;;33.17;29.60;;;30.10;90.10;;;;;;4165226;28;20561;-75
2022/03/05 03:50:38;;;;;;;35.65;29.52;;;30.20;88.70;;;;;;4169863;28;20423;-76
2022/03/05 03:52:43;;;;;;;32.83;29.33;;;30.20;89.40;;;;;;4165750;28;20061;-76
2022/03/05 03:54:48;;;;;;;30.50;26.33;;;30.20;88.40;;;;;;4161693;28;20072;-76
2022/03/05 03:56:54;;;;;;;35.47;28.13;;;30.20;88.50;;;;;;4163948;28;20066;-76
2022/03/05 03:58:59;;;;;;;31.88;28.40;;;30.40;87.80;;;;;;4163161;28;20119;-75
2022/03/05 04:01:03;;;;;;;34.35;28.65;;;30.40;88.70;;;;;;4162112;28;20041;-74
2022/03/05 04:03:11;;;;;;;33.28;29.70;;;30.40;88.40;;;;;;4169740;28;20056;-75
2022/03/05 04:05:16;;;;;;;32.92;29.27;;;30.50;88.20;;;;;;4160136;28;20061;-74
2022/03/05 04:09:41;;;;;;;35.40;28.83;;;30.60;88.80;;;;;;4157725;28;20056;-76
2022/03/05 04:11:45;;;;;;;35.60;28.45;;;30.70;88.40;;;;;;4160823;28;20073;-74
2022/03/05 04:13:49;;;;;;;34.05;30.13;;;30.70;87.90;;;;;;4159686;28;20115;-76
2022/03/05 04:15:59;;;;;;;34.05;29.90;;;30.80;87.50;;;;;;4159637;28;20041;-74
2022/03/05 04:18:04;;;;;;;33.17;29.58;;;30.90;86.50;;;;;;4158255;28;20045;-76
2022/03/05 04:20:09;;;;;;;32.17;28.67;;;30.90;86.80;;;;;;4160520;28;20062;-75
2022/03/05 04:22:17;;;;;;;33.50;28.08;;;30.90;87.60;;;;;;4160878;28;20396;-75
2022/03/05 04:24:22;;;;;;;31.63;27.40;;;31.00;88.20;;;;;;4160287;28;20080;-76
2022/03/05 04:26:26;;;;;;;29.58;26.45;;;31.00;87.60;;;;;;4159935;28;20060;-76
2022/03/05 04:28:33;;;;;;;31.60;27.27;;;31.10;86.60;;;;;;4159727;28;20053;-76
2022/03/05 04:30:37;;;;;;;35.42;28.02;;;31.10;85.80;;;;;;4160807;28;20124;-76
2022/03/05 04:32:41;;;;;;;33.42;27.20;;;31.20;85.80;;;;;;4159199;28;20106;-76
2022/03/05 04:34:48;;;;;;;31.45;28.15;;;31.20;85.70;;;;;;4160420;28;20046;-75
2022/03/05 04:36:52;;;;;;;32.47;28.50;;;31.30;85.20;;;;;;4162527;28;20514;-75
2022/03/05 04:38:56;;;;;;;44.88;28.13;;;31.30;84.60;;;;;;4163811;28;20037;-75
2022/03/05 04:41:05;;;;;;;34.00;28.08;;;31.40;85.50;;;;;;4165078;28;20103;-76
2022/03/05 04:43:10;;;;;;;33.72;27.52;;;31.40;85.70;;;;;;4163627;28;20050;-77
2022/03/05 04:45:14;;;;;;;31.35;27.30;;;31.50;86.00;;;;;;4164465;28;20053;-76
2022/03/05 04:47:23;;;;;;;33.78;28.90;;;31.50;86.00;;;;;;4165662;28;20420;-75
2022/03/05 04:49:27;;;;;;;31.77;28.45;;;31.60;84.60;;;;;;4162677;28;20650;-76
2022/03/05 04:51:32;;;;;;;31.67;28.30;;;31.70;84.50;;;;;;4163405;28;20037;-76
2022/03/05 04:53:36;;;;;;;35.50;28.15;;;31.70;85.00;;;;;;4164880;28;20106;-75
2022/03/05 04:55:40;;;;;;;30.42;27.10;;;31.70;85.50;;;;;;4163462;28;20487;-75
2022/03/05 04:57:45;;;;;;;31.90;28.30;;;31.80;85.60;;;;;;4161566;28;20568;-74
2022/03/05 04:59:52;;;;;;;31.27;27.27;;;31.80;85.40;;;;;;4160264;28;20611;-75
2022/03/05 05:01:58;;;;;;;33.33;27.25;;;31.90;84.90;;;;;;4158166;28;20042;-76
2022/03/05 05:04:02;;;;;;;30.17;26.88;;;31.90;85.10;;;;;;4163015;28;20050;-75
2022/03/05 05:06:07;;;;;;;32.53;26.77;;;32.00;84.90;;;;;;4163993;28;20057;-76
2022/03/05 05:08:13;;;;;;;29.95;26.55;;;32.00;84.50;;;;;;4162377;28;20134;-76
2022/03/05 05:10:17;;;;;;;32.92;27.42;;;32.10;84.40;;;;;;4164447;28;20045;-75
2022/03/05 05:12:24;;;;;;;30.73;27.27;;;32.10;84.20;;;;;;4163957;28;20080;-76
2022/03/05 05:14:28;;;;;;;33.65;28.17;;;32.10;84.80;;;;;;4163030;28;20411;-76
2022/03/05 05:16:33;;;;;;;31.90;28.50;;;32.20;85.00;;;;;;4162456;28;20095;-76
2022/03/05 05:19:24;;;;;;;29.67;26.38;;;32.20;84.80;;;;;;4163223;28;20042;-75
2022/03/05 05:21:03;;;;;;;30.80;26.48;;;32.20;84.90;;;;;;4161064;28;20042;-75
2022/03/05 05:23:08;;;;;;;29.35;26.25;;;32.20;84.90;;;;;;4164242;28;20081;-76
2022/03/05 05:25:15;;;;;;;29.65;26.40;;;32.30;84.70;;;;;;4162954;28;20111;-76
2022/03/05 05:27:19;;;;;;;31.75;25.67;;;32.30;84.20;;;;;;4159260;28;20048;-75
2022/03/05 05:29:24;;;;;;;27.17;24.30;;;32.30;84.50;;;;;;4159385;28;20037;-75
2022/03/05 05:31:46;;;;;;;30.98;26.02;;;32.40;83.70;;;;;;4162395;28;20041;-77
2022/03/05 05:33:52;;;;;;;28.08;24.98;;;32.40;83.50;;;;;;4159160;28;20515;-76
2022/03/05 05:35:56;;;;;;;31.30;24.33;;;32.50;82.90;;;;;;4164049;28;20130;-75
2022/03/05 05:38:06;;;;;;;27.42;24.40;;;32.50;82.10;;;;;;4162786;28;20044;-75
2022/03/05 05:40:11;;;;;;;27.80;24.10;;;32.50;81.40;;;;;;4161989;28;20128;-76
2022/03/05 05:42:16;;;;;;;27.33;24.45;;;32.50;81.60;;;;;;4168390;28;20037;-75
2022/03/05 05:44:24;;;;;;;31.38;24.52;;;32.60;81.40;;;;;;4161708;28;20095;-76
2022/03/05 05:46:28;;;;;;;29.42;24.50;;;32.60;81.90;;;;;;4160182;28;20067;-75
2022/03/05 05:48:33;;;;;;;29.33;25.65;;;32.70;82.70;;;;;;4162205;28;20061;-75
2022/03/05 05:50:44;;;;;;;29.02;25.80;;;32.70;82.70;;;;;;4167601;28;20049;-75
2022/03/05 05:52:49;;;;;;;29.73;26.55;;;32.70;81.40;;;;;;4139975;28;20070;-76
2022/03/05 05:54:54;;;;;;;27.85;24.77;;;32.70;81.60;;;;;;4169680;28;20095;-75
2022/03/05 05:57:01;;;;;;;32.67;25.80;;;32.70;81.60;;;;;;4163558;28;20049;-75
2022/03/05 05:59:06;;;;;;;28.75;25.67;;;32.80;81.40;;;;;;4163282;28;20038;-75
2022/03/05 06:01:11;;;;;;;27.88;24.88;;;32.80;80.60;;;;;;4157820;28;20092;-75
2022/03/05 06:03:18;;;;;;;28.83;24.88;;;32.80;80.60;;;;;;4160545;28;20072;-75
2022/03/05 06:05:23;;;;;;;28.67;23.85;;;32.90;80.60;;;;;;4160318;28;20068;-75
2022/03/05 06:07:28;;;;;;;27.00;24.13;;;33.00;81.10;;;;;;4163312;28;20068;-76
2022/03/05 06:09:34;;;;;;;30.58;24.50;;;33.00;81.10;;;;;;4164817;28;20041;-74
2022/03/05 06:11:40;;;;;;;28.05;24.40;;;33.10;81.10;;;;;;4165134;28;20124;-75
2022/03/05 06:13:45;;;;;;;27.15;24.35;;;33.10;81.30;;;;;;4164257;28;20041;-75
2022/03/05 06:15:50;;;;;;;28.30;24.70;;;33.10;81.50;;;;;;4164470;28;20049;-76
2022/03/05 06:17:57;;;;;;;27.77;24.80;;;33.20;81.30;;;;;;4163457;28;20041;-75
2022/03/05 06:20:02;;;;;;;28.55;25.33;;;33.20;80.60;;;;;;4161855;28;20095;-75
2022/03/05 06:22:11;;;;;;;29.45;24.20;;;33.30;80.90;;;;;;4164186;28;20121;-76
2022/03/05 06:24:15;;;;;;;28.95;24.33;;;33.30;80.00;;;;;;4161905;28;20125;-74
2022/03/05 06:26:20;;;;;;;27.42;24.58;;;33.30;80.00;;;;;;4162156;28;20058;-75
2022/03/05 06:28:27;;;;;;;29.88;24.92;;;33.40;80.20;;;;;;4167970;28;20045;-76
2022/03/05 06:30:32;;;;;;;28.63;25.27;;;33.40;80.00;;;;;;4161549;28;20055;-75
2022/03/05 06:32:37;;;;;;;28.73;25.55;;;33.40;80.50;;;;;;4170942;28;20718;-76
2022/03/05 06:34:44;;;;;;;29.70;25.83;;;33.40;81.20;;;;;;4156806;28;20053;-77
2022/03/05 06:36:48;;;;;;;31.45;26.45;;;33.40;81.30;;;;;;4163477;28;20156;-76
2022/03/05 06:38:53;;;;;;;29.90;26.73;;;33.50;81.00;;;;;;4165511;28;20073;-76
2022/03/05 06:41:01;;;;;;;29.35;25.63;;;33.50;80.30;;;;;;4161063;28;20046;-76
2022/03/05 06:43:06;;;;;;;31.25;25.90;;;33.50;80.20;;;;;;4164786;28;20137;-75
2022/03/05 06:45:11;;;;;;;28.67;24.63;;;33.50;80.10;;;;;;4162773;28;20052;-74
2022/03/05 06:47:20;;;;;;;28.67;25.15;;;33.50;79.70;;;;;;4163218;28;20088;-75
2022/03/05 06:49:25;;;;;;;27.90;23.02;;;33.50;79.10;;;;;;4161610;28;20042;-75
2022/03/05 06:51:30;;;;;;;40.47;25.17;;;33.50;79.20;;;;;;4167178;28;20072;-75
2022/03/05 06:53:38;;;;;;;26.88;23.85;;;33.50;79.40;;;;;;4161603;28;20060;-74
2022/03/05 06:55:45;;;;;;;29.80;23.27;;;33.60;78.90;;;;;;4158769;28;20050;-75
2022/03/05 06:57:50;;;;;;;26.60;23.40;;;33.60;78.80;;;;;;4162316;28;20124;-76
2022/03/05 06:59:58;;;;;;;34.55;24.02;;;33.60;78.70;;;;;;4153191;28;20038;-74
2022/03/05 07:02:03;;;;;;;29.83;25.75;;;33.60;79.10;;;;;;4160560;28;20498;-75
2022/03/05 07:04:08;;;;;;;27.65;24.80;;;33.60;79.30;;;;;;4192443;28;20122;-74
2022/03/05 07:06:18;;;;;;;28.88;25.02;;;33.60;79.90;;;;;;4161054;28;20041;-75
2022/03/05 07:08:22;;;;;;;30.38;26.95;;;33.70;79.80;;;;;;4162612;28;20387;-75
2022/03/05 07:10:28;;;;;;;32.80;27.05;;;33.70;79.60;;;;;;4165647;28;20041;-75
2022/03/05 07:12:34;;;;;;;29.88;26.73;;;33.70;79.00;;;;;;4161418;28;20045;-75
2022/03/05 07:14:40;;;;;;;31.08;26.17;;;33.70;79.30;;;;;;4162467;28;20796;-73
2022/03/05 07:16:44;;;;;;;28.50;24.90;;;33.70;79.50;;;;;;4165063;28;20056;-70
2022/03/05 07:18:51;;;;;;;29.63;24.95;;;33.70;79.40;;;;;;4164468;28;20041;-76
2022/03/05 07:20:57;;;;;;;31.02;24.45;;;33.70;78.80;;;;;;4160513;28;20049;-75
2022/03/05 07:23:04;;;;;;;28.60;24.63;;;33.80;78.80;;;;;;4166310;28;20049;-74
2022/03/05 07:25:12;;;;;;;30.70;24.60;;;33.80;79.10;;;;;;4168699;28;20060;-73
2022/03/05 07:27:19;;;;;;;27.92;24.90;;;33.90;78.80;;;;;;4158828;28;20057;-75
2022/03/05 07:29:23;;;;;;;30.95;24.67;;;33.90;78.80;;;;;;4162120;28;20464;-75
2022/03/05 07:31:30;;;;;;;26.98;23.50;;;34.00;78.40;;;;;;4161904;28;20579;-75
2022/03/05 07:33:35;;;;;;;25.85;23.25;;;34.00;78.20;;;;;;4165328;28;20569;-75
2022/03/05 07:35:39;;;;;;;27.40;22.45;;;33.90;78.10;;;;;;4167425;28;20064;-75
2022/03/05 07:37:44;;;;;;;26.52;22.35;;;34.00;78.10;;;;;;4167199;28;20049;-74
2022/03/05 07:39:53;;;;;;;25.77;22.10;;;34.00;77.80;;;;;;4158250;28;20072;-75
2022/03/05 07:41:58;;;;;;;24.83;22.17;;;34.00;77.60;;;;;;4160912;28;20471;-75
2022/03/05 07:44:06;;;;;;;28.27;23.20;;;34.00;77.50;;;;;;4161169;28;20491;-75
2022/03/05 07:46:11;;;;;;;25.67;22.83;;;34.10;77.20;;;;;;4161359;28;20403;-75
2022/03/05 07:48:19;;;;;;;28.23;23.20;;;34.10;77.40;;;;;;4163877;28;20045;-76
2022/03/05 07:50:26;;;;;;;27.13;22.92;;;34.10;77.50;;;;;;4163254;28;20087;-76
2022/03/05 07:52:31;;;;;;;27.30;22.30;;;34.10;78.60;;;;;;4162850;28;20053;-75
2022/03/05 07:54:35;;;;;;;25.30;22.27;;;34.10;78.30;;;;;;4167037;28;20088;-75
2022/03/05 07:56:43;;;;;;;27.13;22.25;;;34.20;78.10;;;;;;4157909;28;20402;-76
2022/03/05 07:58:48;;;;;;;27.02;23.73;;;34.20;77.60;;;;;;4160187;28;20056;-76
2022/03/05 08:00:53;;;;;;;25.95;23.08;;;34.20;77.40;;;;;;4159042;28;20033;-75
2022/03/05 08:03:01;;;;;;;27.88;22.70;;;34.10;77.60;;;;;;4159558;28;20045;-74
2022/03/05 08:05:06;;;;;;;26.38;23.30;;;34.10;77.90;;;;;;4167327;28;20047;-76
2022/03/05 08:07:12;;;;;;;25.70;23.00;;;34.10;76.90;;;;;;4161325;28;20042;-75
2022/03/05 08:09:18;;;;;;;25.65;22.42;;;34.10;76.90;;;;;;4160247;28;20690;-75
2022/03/05 08:11:24;;;;;;;27.58;23.55;;;34.10;76.40;;;;;;4164780;28;20096;-75
2022/03/05 08:13:29;;;;;;;25.13;22.50;;;34.10;76.70;;;;;;4161403;28;20504;-75
2022/03/05 08:15:38;;;;;;;25.95;23.05;;;34.10;77.20;;;;;;4164857;28;20512;-75
2022/03/05 08:17:59;;;;;;;26.38;23.52;;;34.10;77.00;;;;;;4165695;28;20492;-75
2022/03/05 08:20:04;;;;;;;28.23;23.77;;;34.10;76.10;;;;;;4161425;28;20041;-76
2022/03/05 08:22:12;;;;;;;25.33;22.63;;;34.10;75.20;;;;;;4160767;28;20080;-75
2022/03/05 08:24:17;;;;;;;27.65;23.25;;;34.10;75.00;;;;;;4163566;28;20128;-74
2022/03/05 08:26:22;;;;;;;28.23;22.33;;;34.00;75.00;;;;;;4167311;28;20095;-75
2022/03/05 08:28:28;;;;;;;27.25;22.45;;;34.00;74.60;;;;;;4164538;28;20077;-74
2022/03/05 08:30:33;;;;;;;25.88;20.92;;;34.00;74.80;;;;;;4164999;28;20041;-75
2022/03/05 08:32:39;;;;;;;25.10;22.40;;;34.00;75.20;;;;;;4165610;28;20081;-75
2022/03/05 08:34:48;;;;;;;24.73;22.20;;;34.00;75.40;;;;;;4167683;28;20045;-74
2022/03/05 08:36:53;;;;;;;23.45;21.05;;;34.00;75.00;;;;;;4158128;28;20458;-75
2022/03/05 08:38:59;;;;;;;23.27;20.77;;;34.00;75.30;;;;;;4168399;28;20563;-74
2022/03/05 08:41:06;;;;;;;24.38;21.42;;;34.00;75.20;;;;;;4164186;28;20362;-74
2022/03/05 08:43:10;;;;;;;28.77;21.35;;;34.00;75.20;;;;;;4164532;28;20577;-76
2022/03/05 08:45:16;;;;;;;23.52;19.02;;;34.10;74.80;;;;;;4164319;28;20548;-75
2022/03/05 08:47:24;;;;;;;26.25;20.63;;;34.00;74.00;;;;;;4164701;28;20099;-75
2022/03/05 08:49:31;;;;;;;22.58;19.88;;;34.00;73.80;;;;;;4166113;28;20056;-74
2022/03/05 08:51:38;;;;;;;24.90;21.42;;;34.00;73.80;;;;;;4170001;28;20119;-75
2022/03/05 08:53:47;;;;;;;24.13;20.95;;;34.00;74.30;;;;;;4165738;28;20144;-74
2022/03/05 08:55:52;;;;;;;24.85;21.50;;;34.00;74.40;;;;;;4161976;28;20052;-76
2022/03/05 08:57:56;;;;;;;24.30;21.63;;;34.00;74.80;;;;;;4163726;28;20096;-75
2022/03/05 09:00:07;;;;;;;24.20;21.55;;;34.00;75.40;;;;;;4163815;28;20441;-75
2022/03/05 09:02:12;;;;;;;28.52;22.58;;;33.90;75.60;;;;;;4157940;28;20109;-75
2022/03/05 09:04:17;;;;;;;23.50;21.08;;;33.90;76.20;;;;;;4165441;28;20488;-75
2022/03/05 09:06:25;;;;;;;27.90;21.70;;;33.90;76.60;;;;;;4168288;28;20483;-75
2022/03/05 09:08:30;;;;;;;24.65;21.50;;;34.00;76.50;;;;;;4161234;28;20078;-76
2022/03/05 09:10:40;;;;;;;24.55;21.98;;;34.00;76.30;;;;;;4163143;28;20080;-75
2022/03/05 09:12:49;;;;;;;24.65;20.50;;;33.90;76.40;;;;;;4163043;28;20596;-76
2022/03/05 09:14:54;;;;;;;27.50;22.10;;;33.90;76.40;;;;;;4164732;28;20041;-76
2022/03/05 09:16:59;;;;;;;24.23;21.63;;;33.90;76.00;;;;;;4166644;28;20566;-76
2022/03/05 09:19:07;;;;;;;23.02;20.55;;;33.90;76.00;;;;;;4163220;28;20060;-75
2022/03/05 09:21:12;;;;;;;23.88;19.42;;;33.90;76.20;;;;;;4166204;28;21277;-76
2022/03/05 09:23:18;;;;;;;22.65;20.40;;;33.80;76.30;;;;;;4164610;28;20045;-76
2022/03/05 09:25:26;;;;;;;25.30;21.27;;;33.80;76.40;;;;;;4163163;28;20077;-75
2022/03/05 09:27:33;;;;;;;22.63;20.23;;;33.90;75.90;;;;;;4163982;28;20502;-76
2022/03/05 09:29:38;;;;;;;23.13;18.95;;;33.80;75.30;;;;;;4161798;28;20041;-75
2022/03/05 09:31:48;;;;;;;23.00;20.75;;;33.80;75.80;;;;;;4163762;28;20584;-75
2022/03/05 09:33:52;;;;;;;21.25;19.05;;;33.80;75.80;;;;;;4160818;28;20045;-76
2022/03/05 09:35:57;;;;;;;25.25;19.45;;;33.80;75.70;;;;;;4158343;28;20124;-75
2022/03/05 09:38:03;;;;;;;22.45;19.73;;;33.80;75.70;;;;;;4162636;28;20424;-75
2022/03/05 09:40:09;;;;;;;22.83;20.25;;;33.80;75.60;;;;;;4164418;28;20472;-75
2022/03/05 09:42:14;;;;;;;23.95;20.38;;;33.70;75.00;;;;;;4164942;28;20117;-75
2022/03/05 09:44:20;;;;;;;23.20;20.58;;;33.70;75.60;;;;;;4162758;28;20133;-74
2022/03/05 09:46:26;;;;;;;22.77;19.88;;;33.70;75.80;;;;;;4163864;28;20091;-74
2022/03/05 09:48:31;;;;;;;27.15;19.60;;;33.70;76.10;;;;;;4163665;28;20030;-73
2022/03/05 09:50:38;;;;;;;29.85;19.55;;;33.70;76.60;;;;;;4166634;28;20078;-74
2022/03/05 09:52:43;;;;;;;27.05;19.88;;;33.70;77.10;;;;;;4168108;28;20056;-75
2022/03/05 09:54:48;;;;;;;24.10;19.55;;;33.60;77.00;;;;;;4162481;28;20075;-75
2022/03/05 09:56:56;;;;;;;26.27;20.17;;;33.60;77.10;;;;;;4166676;28;20049;-75
2022/03/05 09:59:01;;;;;;;28.75;21.65;;;33.60;77.40;;;;;;4163816;28;20072;-74
2022/03/05 10:01:06;;;;;;;28.38;20.38;;;33.60;77.60;;;;;;4169066;28;20131;-75
2022/03/05 10:03:15;;;;;;;27.60;20.65;;;33.50;77.70;;;;;;4158523;28;20056;-74
2022/03/05 10:05:26;;;;;;;32.58;21.90;;;33.50;77.60;;;;;;4162864;28;20052;-73
2022/03/05 10:07:30;;;;;;;27.60;21.73;;;33.50;77.30;;;;;;4163040;28;20044;-74
2022/03/05 10:09:38;;;;;;;24.50;20.55;;;33.50;77.20;;;;;;4158701;28;20107;-74
2022/03/05 10:11:43;;;;;;;31.67;21.42;;;33.50;77.10;;;;;;4160103;28;20073;-74
2022/03/05 10:13:49;;;;;;;23.23;20.75;;;33.40;77.50;;;;;;4160160;28;20057;-75
2022/03/05 10:15:59;;;;;;;25.98;20.75;;;33.40;77.70;;;;;;4158521;28;20061;-75
2022/03/05 10:18:04;;;;;;;30.15;21.85;;;33.40;77.90;;;;;;4160862;28;20038;-74
2022/03/05 10:20:09;;;;;;;26.85;22.67;;;33.40;78.20;;;;;;4161366;28;20085;-75
2022/03/05 10:22:17;;;;;;;24.90;22.17;;;33.40;79.20;;;;;;4161753;28;20049;-75
2022/03/05 10:24:22;;;;;;;24.73;22.05;;;33.30;78.70;;;;;;4161486;28;20033;-75
2022/03/05 10:26:48;;;;;;;29.33;23.25;;;33.30;78.40;;;;;;4162014;28;20504;-75
2022/03/05 10:28:57;;;;;;;26.90;22.75;;;33.30;78.40;;;;;;4162553;28;20061;-75
2022/03/05 10:31:07;;;;;;;30.88;23.13;;;33.30;78.50;;;;;;4166386;28;20037;-72
2022/03/05 10:33:44;;;;;;;32.45;23.17;;;33.20;78.30;;;;;;4163023;28;20046;-74
2022/03/05 10:35:51;;;;;;;26.65;22.80;;;33.20;78.20;;;;;;4162177;28;20069;-74
2022/03/05 10:37:55;;;;;;;32.92;23.55;;;33.10;78.00;;;;;;4163149;28;20071;-72
2022/03/05 10:40:02;;;;;;;41.63;24.85;;;33.10;78.20;;;;;;4162764;28;20050;-73
2022/03/05 10:42:21;;;;;;;31.25;24.17;;;33.00;78.70;;;;;;4160815;28;20416;-75